Time;durP1;ratioP1;P1;durP2;ratioP2;P2;SDS_P1;SDS_P2;PMS_P1;PMS_P2;Temp;Humidity;BMP_temperature;BMP_pressure;BME280_temperature;BME280_humidity;BME280_pressure;Samples;Min_cycle;Max_cycle;Signal;HPM_P1;HPM_P2
2024/02/27 00:01:59;;;;;;;11.43;8.50;;;5.60;99.90;4.70;99942.00;;;;4923589;28;110465;-65
2024/02/27 00:04:25;;;;;;;11.00;7.10;;;4.90;99.90;4.80;99935.00;;;;4929681;28;93045;-65
2024/02/27 00:06:51;;;;;;;7.37;6.37;;;4.90;99.90;4.80;99929.00;;;;4931208;28;93342;-65
2024/02/27 00:09:18;;;;;;;7.37;6.53;;;4.90;99.90;4.80;99945.00;;;;4924702;28;93795;-66
2024/02/27 00:11:45;;;;;;;7.93;5.73;;;5.00;99.90;4.80;99934.00;;;;4926644;28;92877;-65
2024/02/27 00:14:11;;;;;;;11.87;7.87;;;4.90;99.90;4.80;99937.00;;;;4927114;28;94335;-65
2024/02/27 00:16:37;;;;;;;12.00;7.23;;;5.00;99.90;4.80;99934.00;;;;4926145;28;93164;-65
2024/02/27 00:19:03;;;;;;;10.20;6.33;;;5.30;99.90;4.80;99932.00;;;;4925530;28;93417;-65
2024/02/27 00:21:29;;;;;;;9.87;6.50;;;5.00;99.90;4.80;99936.00;;;;4932304;28;93013;-65
2024/02/27 00:23:54;;;;;;;10.20;6.50;;;5.00;99.90;4.70;99933.00;;;;4924637;28;108210;-65
2024/02/27 00:26:20;;;;;;;11.23;7.47;;;5.70;99.90;4.60;99932.00;;;;4921570;28;122886;-65
2024/02/27 00:28:46;;;;;;;8.33;7.43;;;4.80;99.90;4.60;99929.00;;;;4925222;28;123160;-65
2024/02/27 00:31:11;;;;;;;12.03;7.40;;;4.80;99.90;4.60;99940.00;;;;4924766;28;92873;-65
2024/02/27 00:33:37;;;;;;;16.13;7.23;;;5.60;99.90;4.50;99935.00;;;;4930766;28;94165;-65
2024/02/27 00:36:03;;;;;;;8.83;6.87;;;4.70;99.90;4.40;99935.00;;;;4928802;28;121340;-66
2024/02/27 00:38:29;;;;;;;12.43;7.90;;;4.70;99.90;4.40;99944.00;;;;4924881;28;109821;-65
2024/02/27 00:40:54;;;;;;;9.93;6.13;;;4.60;99.90;4.30;99936.00;;;;4921848;28;109490;-65
2024/02/27 00:43:20;;;;;;;9.13;6.13;;;5.00;99.90;4.20;99949.00;;;;4926027;28;108814;-65
2024/02/27 00:45:46;;;;;;;10.30;7.33;;;4.40;99.90;4.20;99957.00;;;;4927501;28;94076;-65
2024/02/27 00:48:12;;;;;;;8.10;7.03;;;4.40;99.90;4.10;99962.00;;;;4926592;28;121844;-65
2024/02/27 00:50:39;;;;;;;17.60;7.73;;;4.40;99.90;4.10;99940.00;;;;4931815;28;110118;-65
2024/02/27 00:53:05;;;;;;;15.07;9.77;;;4.30;99.90;4.00;99956.00;;;;4927614;28;92880;-66
2024/02/27 00:55:31;;;;;;;11.77;8.20;;;4.30;99.90;4.00;99956.00;;;;4927166;28;111699;-65
2024/02/27 00:57:57;;;;;;;12.87;8.17;;;4.10;99.90;3.90;99951.00;;;;4923965;28;123448;-65
2024/02/27 01:00:22;;;;;;;12.10;7.97;;;4.20;99.90;3.80;99951.00;;;;4927670;28;92705;-65
2024/02/27 01:02:48;;;;;;;13.50;6.83;;;4.00;99.90;3.80;99960.00;;;;4927956;28;108528;-65
2024/02/27 01:05:14;;;;;;;7.93;6.73;;;4.00;99.90;3.70;99969.00;;;;4923615;28;122098;-65
2024/02/27 01:07:40;;;;;;;10.30;6.90;;;4.90;99.90;3.60;99989.00;;;;4931457;28;121658;-65
2024/02/27 01:10:06;;;;;;;9.37;7.00;;;4.00;99.90;3.60;99996.00;;;;4932274;28;93030;-66
2024/02/27 01:12:32;;;;;;;9.27;6.93;;;3.90;99.90;3.50;100002.00;;;;4925289;28;94080;-65
2024/02/27 01:14:58;;;;;;;9.73;7.20;;;3.70;99.90;3.50;100001.00;;;;4923328;28;93237;-66
2024/02/27 01:17:24;;;;;;;11.93;7.00;;;3.70;99.90;3.40;100008.00;;;;4923029;28;121657;-65
2024/02/27 01:19:49;;;;;;;9.37;7.20;;;3.60;99.90;3.30;100011.00;;;;4927466;28;93154;-65
2024/02/27 01:22:27;;;;;;;8.53;6.77;;;3.60;99.90;3.30;100022.00;;;;4922778;28;107949;-66
2024/02/27 01:24:54;;;;;;;12.40;7.73;;;4.40;99.90;3.20;100030.00;;;;4924265;28;93486;-65
2024/02/27 01:27:20;;;;;;;14.37;6.77;;;3.40;99.90;3.20;100036.00;;;;4927829;28;93003;-65
2024/02/27 01:29:45;;;;;;;13.10;7.47;;;2.80;99.90;3.20;100041.00;;;;4929492;28;98572;-65
2024/02/27 01:32:11;;;;;;;10.33;7.40;;;3.40;99.90;3.10;100037.00;;;;4928816;28;108411;-66
2024/02/27 01:34:36;;;;;;;11.10;7.37;;;3.40;99.90;3.10;100028.00;;;;4930596;28;120650;-65
2024/02/27 01:37:02;;;;;;;9.90;6.30;;;4.10;99.90;3.10;100034.00;;;;4924832;28;116330;-67
2024/02/27 01:39:28;;;;;;;10.33;7.83;;;3.40;99.90;3.10;100045.00;;;;4926883;28;102677;-67
2024/02/27 01:41:54;;;;;;;9.77;6.53;;;3.40;99.90;3.10;100046.00;;;;4924402;28;108893;-65
2024/02/27 01:44:19;;;;;;;8.30;5.23;;;3.30;99.90;3.10;100044.00;;;;4929058;28;117963;-67
2024/02/27 01:46:45;;;;;;;12.63;6.83;;;3.40;99.90;3.10;100058.00;;;;4925735;28;122433;-66
2024/02/27 01:49:13;;;;;;;9.70;6.90;;;3.40;99.90;3.20;100053.00;;;;4925031;28;111387;-66
2024/02/27 01:51:40;;;;;;;9.83;6.50;;;4.10;99.90;3.20;100047.00;;;;4926209;28;93765;-66
2024/02/27 01:54:07;;;;;;;11.50;6.57;;;3.40;99.90;3.20;100039.00;;;;4943039;28;107968;-66
2024/02/27 01:56:34;;;;;;;8.83;6.57;;;3.40;99.90;3.20;100043.00;;;;4943134;28;120821;-67
2024/02/27 01:59:00;;;;;;;8.40;6.23;;;3.40;99.90;3.20;100042.00;;;;4928001;28;110482;-68
2024/02/27 02:01:29;;;;;;;12.30;6.83;;;3.50;99.90;3.20;100037.00;;;;4929857;28;107797;-66
2024/02/27 02:03:56;;;;;;;10.57;6.70;;;3.50;99.90;3.20;100044.00;;;;4927811;28;123985;-65
2024/02/27 02:06:22;;;;;;;11.10;6.73;;;3.40;99.90;3.20;100033.00;;;;4925895;28;93298;-66
2024/02/27 02:08:48;;;;;;;8.20;6.43;;;3.40;99.90;3.10;100048.00;;;;4929490;28;98016;-66
2024/02/27 02:11:14;;;;;;;10.20;5.93;;;3.40;99.90;3.10;100051.00;;;;4929739;28;93120;-66
2024/02/27 02:13:40;;;;;;;8.17;6.47;;;3.40;99.90;3.10;100054.00;;;;4923563;28;121593;-66
2024/02/27 02:16:06;;;;;;;9.13;7.33;;;3.50;99.90;3.10;100063.00;;;;4930991;28;122332;-66
2024/02/27 02:18:32;;;;;;;11.00;7.80;;;3.30;99.90;3.00;100056.00;;;;4929669;28;92431;-66
2024/02/27 02:20:59;;;;;;;8.83;6.30;;;3.20;99.90;3.00;100062.00;;;;4930251;28;92984;-66
2024/02/27 02:23:25;;;;;;;8.37;6.50;;;3.30;99.90;3.00;100055.00;;;;4928192;28;93319;-67
2024/02/27 02:25:51;;;;;;;15.20;7.87;;;3.30;99.90;3.00;100042.00;;;;4924691;28;123522;-67
2024/02/27 02:28:17;;;;;;;11.23;8.27;;;3.20;99.90;3.00;100055.00;;;;4927843;28;110451;-66
2024/02/27 02:30:43;;;;;;;13.43;7.37;;;3.20;99.90;3.00;100056.00;;;;4926111;28;109981;-66
2024/02/27 02:33:11;;;;;;;10.60;7.17;;;3.20;99.90;3.00;100060.00;;;;4926936;28;94083;-67
2024/02/27 02:35:37;;;;;;;10.97;7.63;;;3.20;99.90;3.00;100065.00;;;;4929947;28;107097;-66
2024/02/27 02:38:04;;;;;;;9.13;7.13;;;3.20;99.90;2.90;100058.00;;;;4923335;28;107547;-66
2024/02/27 02:40:31;;;;;;;9.70;5.57;;;3.20;99.90;2.90;100055.00;;;;4930079;28;92939;-67
2024/02/27 02:42:57;;;;;;;10.23;6.60;;;4.00;99.90;2.90;100063.00;;;;4928627;28;93916;-66
2024/02/27 02:45:22;;;;;;;17.97;7.47;;;3.20;99.90;2.90;100058.00;;;;4928604;28;93325;-66
2024/02/27 02:47:48;;;;;;;11.67;6.40;;;3.20;99.90;2.80;100060.00;;;;4930432;28;111459;-67
2024/02/27 02:50:14;;;;;;;9.67;6.70;;;3.80;99.90;2.80;100059.00;;;;4929501;28;95641;-67
2024/02/27 02:52:40;;;;;;;9.43;6.93;;;3.10;99.90;2.80;100061.00;;;;4932867;28;93041;-66
2024/02/27 02:55:08;;;;;;;10.20;7.27;;;3.10;99.90;2.70;100056.00;;;;4932435;28;108827;-66
2024/02/27 02:57:34;;;;;;;14.93;9.57;;;3.00;99.90;2.70;100059.00;;;;4926913;28;93041;-67
2024/02/27 03:00:00;;;;;;;8.87;5.70;;;2.90;99.90;2.70;100053.00;;;;4930758;28;92954;-66
2024/02/27 03:02:26;;;;;;;15.50;7.80;;;2.90;99.90;2.70;100068.00;;;;4925353;28;93086;-66
2024/02/27 03:04:52;;;;;;;10.23;6.93;;;2.90;99.90;2.70;100061.00;;;;4929967;28;93758;-66
2024/02/27 03:07:19;;;;;;;12.13;7.70;;;2.90;99.90;2.60;100077.00;;;;4927225;28;92517;-67
2024/02/27 03:09:44;;;;;;;9.73;6.90;;;2.90;99.90;2.60;100080.00;;;;4927477;28;108353;-66
2024/02/27 03:12:10;;;;;;;11.73;7.23;;;2.90;99.90;2.60;100085.00;;;;4925271;28;122047;-66
2024/02/27 03:14:37;;;;;;;10.67;6.67;;;2.90;99.90;2.50;100081.00;;;;4930308;28;95098;-66
2024/02/27 03:17:02;;;;;;;13.83;7.50;;;2.80;99.90;2.50;100086.00;;;;4931808;28;92793;-67
2024/02/27 03:19:28;;;;;;;10.30;6.73;;;2.80;99.90;2.50;100097.00;;;;4926646;28;108470;-66
2024/02/27 03:21:56;;;;;;;24.27;7.27;;;3.40;99.90;2.50;100095.00;;;;4925103;28;120096;-66
2024/02/27 03:24:22;;;;;;;9.00;7.00;;;2.70;99.90;2.40;100093.00;;;;4925928;28;93982;-67
2024/02/27 03:26:48;;;;;;;10.87;6.20;;;2.80;99.90;2.40;100100.00;;;;4933113;28;92966;-67
2024/02/27 03:29:14;;;;;;;14.07;9.03;;;2.70;99.90;2.40;100092.00;;;;4932696;28;93127;-67
2024/02/27 03:31:40;;;;;;;11.87;7.00;;;2.70;99.90;2.40;100093.00;;;;4924932;28;122501;-67
2024/02/27 03:34:06;;;;;;;9.80;6.50;;;2.70;99.90;2.40;100086.00;;;;4929478;28;121551;-67
2024/02/27 03:36:32;;;;;;;11.10;6.93;;;2.70;99.90;2.40;100097.00;;;;4931662;28;110728;-67
2024/02/27 03:38:57;;;;;;;8.20;7.40;;;2.70;99.90;2.40;100088.00;;;;4928137;28;111712;-67
2024/02/27 03:41:23;;;;;;;7.90;5.97;;;2.70;99.90;2.40;100103.00;;;;4926872;28;122795;-67
2024/02/27 03:43:49;;;;;;;15.20;6.80;;;3.10;99.90;2.50;100100.00;;;;4930865;28;93082;-66
2024/02/27 03:46:14;;;;;;;8.47;5.43;;;2.70;99.90;2.40;100095.00;;;;4930455;28;109825;-67
2024/02/27 03:48:40;;;;;;;8.97;5.87;;;2.60;99.90;2.50;100089.00;;;;4927896;28;105720;-67
2024/02/27 03:51:06;;;;;;;11.87;7.30;;;2.70;99.90;2.40;100098.00;;;;4929393;28;93904;-66
2024/02/27 03:53:32;;;;;;;9.00;6.33;;;2.60;99.90;2.40;100085.00;;;;4923514;28;123522;-67
2024/02/27 03:55:58;;;;;;;13.73;6.97;;;2.70;99.90;2.40;100100.00;;;;4927065;28;110215;-65
2024/02/27 03:58:24;;;;;;;9.50;6.23;;;3.70;99.90;2.50;100100.00;;;;4929434;28;101237;-65
2024/02/27 04:00:50;;;;;;;10.50;6.70;;;2.70;99.90;2.50;100110.00;;;;4925546;28;121607;-67
2024/02/27 04:03:16;;;;;;;9.77;7.37;;;2.60;99.90;2.50;100100.00;;;;4923245;28;121841;-65
2024/02/27 04:05:42;;;;;;;9.27;6.60;;;2.70;99.90;2.50;100099.00;;;;4924462;28;97309;-65
2024/02/27 04:08:08;;;;;;;11.27;7.83;;;2.70;99.90;2.50;100098.00;;;;4929607;28;108759;-65
2024/02/27 04:10:35;;;;;;;11.47;7.33;;;2.70;99.90;2.50;100095.00;;;;4930101;28;92800;-65
2024/02/27 04:13:00;;;;;;;14.07;7.80;;;2.80;99.90;2.50;100098.00;;;;4924338;28;114007;-65
2024/02/27 04:15:26;;;;;;;12.53;6.27;;;2.70;99.90;2.50;100097.00;;;;4927410;28;109750;-65
2024/02/27 04:17:52;;;;;;;10.77;7.10;;;2.70;99.90;2.50;100114.00;;;;4925493;28;108819;-65
2024/02/27 04:20:20;;;;;;;11.30;7.70;;;2.70;99.90;2.50;100108.00;;;;4928224;28;93653;-65
2024/02/27 04:22:45;;;;;;;10.43;7.07;;;2.70;99.90;2.50;100107.00;;;;4928459;28;93683;-65
2024/02/27 04:25:11;;;;;;;8.13;6.67;;;2.80;99.90;2.50;100098.00;;;;4926831;28;99333;-67
2024/02/27 04:27:39;;;;;;;11.43;7.60;;;3.40;99.90;2.50;100111.00;;;;4927046;28;107113;-67
2024/02/27 04:30:06;;;;;;;11.10;6.40;;;2.90;99.90;2.50;100116.00;;;;4925733;28;94021;-67
2024/02/27 04:32:32;;;;;;;9.67;6.67;;;2.70;99.90;2.60;100109.00;;;;4926283;28;94224;-66
2024/02/27 04:34:58;;;;;;;12.57;6.63;;;2.80;99.90;2.70;100115.00;;;;4925471;28;100956;-66
2024/02/27 04:37:23;;;;;;;9.40;7.23;;;2.80;99.90;2.70;100118.00;;;;4923875;28;101765;-67
2024/02/27 04:39:49;;;;;;;12.93;8.40;;;2.90;99.90;2.70;100119.00;;;;4927277;28;122281;-66
2024/02/27 04:42:15;;;;;;;13.13;8.33;;;3.60;99.90;2.80;100127.00;;;;4923054;28;122013;-67
2024/02/27 04:44:40;;;;;;;11.37;7.83;;;3.10;99.90;2.90;100131.00;;;;4926808;28;108264;-66
2024/02/27 04:47:06;;;;;;;13.33;10.37;;;3.10;99.90;2.90;100128.00;;;;4880835;28;109387;-66
2024/02/27 04:49:32;;;;;;;11.87;9.03;;;3.10;99.90;3.00;100124.00;;;;4905387;28;122798;-67
2024/02/27 04:51:58;;;;;;;10.50;6.67;;;3.10;99.90;3.00;100123.00;;;;4904075;28;93847;-66
2024/02/27 04:54:24;;;;;;;15.10;8.27;;;3.20;99.90;3.10;100119.00;;;;4905981;28;110852;-66
2024/02/27 04:56:50;;;;;;;12.73;8.67;;;4.10;99.90;3.10;100130.00;;;;4905574;28;109608;-66
2024/02/27 04:59:15;;;;;;;10.30;6.87;;;3.30;99.90;3.20;100145.00;;;;4905756;28;122170;-66
2024/02/27 05:01:46;;;;;;;7.67;6.30;;;3.40;99.90;3.20;100147.00;;;;4909674;28;111067;-66
2024/02/27 05:04:11;;;;;;;9.50;7.30;;;3.50;99.90;3.30;100144.00;;;;4908229;28;100338;-66
2024/02/27 05:06:37;;;;;;;21.10;11.83;;;3.40;99.90;3.30;100151.00;;;;4912097;28;108202;-66
2024/02/27 05:09:03;;;;;;;18.57;9.77;;;3.50;99.90;3.30;100167.00;;;;4909135;28;111663;-67
2024/02/27 05:11:29;;;;;;;12.73;8.63;;;3.60;99.90;3.40;100162.00;;;;4911753;28;92954;-67
2024/02/27 05:13:54;;;;;;;16.87;11.67;;;3.60;99.90;3.50;100166.00;;;;4913125;28;107787;-67
2024/02/27 05:16:20;;;;;;;22.53;12.97;;;3.60;99.90;3.50;100171.00;;;;4911555;28;93836;-67
2024/02/27 05:18:46;;;;;;;18.00;10.70;;;3.80;99.90;3.60;100175.00;;;;4907677;28;123435;-66
2024/02/27 05:21:12;;;;;;;16.27;9.50;;;3.80;99.90;3.60;100178.00;;;;4910019;28;121426;-67
2024/02/27 05:23:37;;;;;;;12.40;8.43;;;3.90;99.90;3.70;100182.00;;;;4907447;28;93056;-67
2024/02/27 05:26:03;;;;;;;13.77;7.07;;;3.90;99.90;3.70;100196.00;;;;4909050;28;109527;-66
2024/02/27 05:28:29;;;;;;;10.73;7.90;;;3.90;99.90;3.80;100189.00;;;;4906015;28;93547;-64
2024/02/27 05:30:55;;;;;;;13.40;8.73;;;3.90;99.90;3.90;100186.00;;;;4905450;28;111429;-65
2024/02/27 05:33:21;;;;;;;13.87;8.73;;;4.00;99.90;3.90;100183.00;;;;4913967;28;110094;-65
2024/02/27 05:35:47;;;;;;;12.40;8.57;;;4.00;99.90;4.00;100182.00;;;;4911295;28;93046;-66
2024/02/27 05:38:13;;;;;;;17.07;10.67;;;4.10;99.90;4.10;100177.00;;;;4907854;28;121547;-65
2024/02/27 05:40:38;;;;;;;15.33;10.53;;;4.70;99.90;4.10;100172.00;;;;4903343;28;122538;-65
2024/02/27 05:43:04;;;;;;;16.07;10.03;;;4.40;99.90;4.20;100170.00;;;;4902985;28;112458;-65
2024/02/27 05:45:31;;;;;;;12.37;8.30;;;4.30;99.90;4.20;100191.00;;;;4904808;28;93066;-65
2024/02/27 05:47:57;;;;;;;11.80;8.20;;;4.40;99.90;4.30;100181.00;;;;4908265;28;94435;-66
2024/02/27 05:50:23;;;;;;;14.33;8.97;;;4.40;99.90;4.30;100181.00;;;;4902885;28;93573;-65
2024/02/27 05:52:49;;;;;;;16.33;9.67;;;4.50;99.90;4.40;100175.00;;;;4907515;28;92889;-65
2024/02/27 05:55:14;;;;;;;13.93;10.87;;;4.60;99.90;4.40;100168.00;;;;4908925;28;96708;-65
2024/02/27 05:57:40;;;;;;;26.63;11.27;;;4.60;99.90;4.50;100176.00;;;;4909548;28;92758;-65
2024/02/27 06:00:10;;;;;;;12.67;8.37;;;5.40;99.90;4.50;100186.00;;;;4907660;28;122635;-65
2024/02/27 06:02:36;;;;;;;21.07;10.03;;;4.70;99.90;4.60;100190.00;;;;4910659;28;92949;-65
2024/02/27 06:05:02;;;;;;;10.30;6.80;;;4.70;99.90;4.60;100194.00;;;;4910063;28;94129;-65
2024/02/27 06:07:28;;;;;;;7.83;6.03;;;5.50;99.90;4.60;100199.00;;;;4905996;28;122115;-65
2024/02/27 06:09:54;;;;;;;10.83;6.70;;;4.80;99.90;4.60;100204.00;;;;4906884;28;121395;-65
2024/02/27 06:12:19;;;;;;;10.97;6.60;;;4.70;99.90;4.60;100210.00;;;;4910069;28;93187;-65
2024/02/27 06:14:45;;;;;;;9.40;6.97;;;4.70;99.90;4.60;100207.00;;;;4908957;28;110033;-65
2024/02/27 06:17:11;;;;;;;9.97;6.40;;;4.80;99.90;4.60;100212.00;;;;4913192;28;122966;-65
2024/02/27 06:19:43;;;;;;;9.87;6.57;;;4.70;99.90;4.60;100220.00;;;;4911329;28;122716;-65
2024/02/27 06:22:11;;;;;;;8.63;6.43;;;4.80;99.90;4.70;100223.00;;;;4908784;28;94737;-66
2024/02/27 06:24:38;;;;;;;11.73;7.67;;;5.10;99.90;4.70;100220.00;;;;4905372;28;93061;-65
2024/02/27 06:27:04;;;;;;;13.67;7.70;;;4.30;99.90;4.70;100207.00;;;;4904257;28;93202;-65
2024/02/27 06:29:30;;;;;;;23.57;11.97;;;4.80;99.90;4.80;100205.00;;;;4907858;28;93855;-65
2024/02/27 06:31:56;;;;;;;17.67;12.33;;;5.00;99.90;4.80;100217.00;;;;4906247;28;92987;-65
2024/02/27 06:34:21;;;;;;;17.87;8.23;;;5.00;99.90;4.90;100216.00;;;;4913176;28;109077;-65
2024/02/27 06:36:48;;;;;;;8.23;7.07;;;5.00;99.90;5.00;100214.00;;;;4904122;28;122731;-65
2024/02/27 06:39:14;;;;;;;12.60;7.13;;;5.20;99.90;5.00;100217.00;;;;4906718;28;94499;-65
2024/02/27 06:41:40;;;;;;;10.07;7.37;;;5.70;99.90;5.00;100227.00;;;;4913041;28;109849;-65
2024/02/27 06:44:06;;;;;;;9.53;6.83;;;5.10;99.90;5.10;100222.00;;;;4910302;28;108873;-65
2024/02/27 06:46:32;;;;;;;11.07;6.50;;;5.40;99.90;5.10;100231.00;;;;4908930;28;92391;-66
2024/02/27 06:48:58;;;;;;;8.27;6.30;;;6.00;99.90;5.10;100232.00;;;;4907411;28;121447;-65
2024/02/27 06:51:23;;;;;;;12.50;6.43;;;5.20;99.90;5.20;100231.00;;;;4910074;28;92949;-65
2024/02/27 06:53:50;;;;;;;10.57;6.80;;;5.30;99.90;5.20;100243.00;;;;4908107;28;110025;-65
2024/02/27 06:56:16;;;;;;;9.50;7.10;;;5.40;99.90;5.20;100240.00;;;;4910528;28;92989;-65
2024/02/27 06:58:42;;;;;;;8.67;6.93;;;5.30;99.90;5.30;100251.00;;;;4909675;28;114622;-65
2024/02/27 07:01:09;;;;;;;10.97;5.77;;;5.90;99.90;5.30;100253.00;;;;4905268;28;111248;-65
2024/02/27 07:03:35;;;;;;;9.90;6.93;;;6.30;99.90;5.30;100254.00;;;;4907256;28;93020;-65
2024/02/27 07:06:01;;;;;;;11.13;6.83;;;6.10;99.90;5.30;100261.00;;;;4904874;28;123538;-65
2024/02/27 07:08:27;;;;;;;6.67;5.87;;;5.50;99.90;5.40;100257.00;;;;4905422;28;93006;-66
2024/02/27 07:10:53;;;;;;;10.33;6.27;;;5.60;99.90;5.40;100267.00;;;;4911181;28;92090;-65
2024/02/27 07:13:18;;;;;;;6.70;5.20;;;6.40;99.90;5.40;100266.00;;;;4910453;28;93139;-65
2024/02/27 07:15:44;;;;;;;8.93;5.70;;;6.30;99.90;5.40;100265.00;;;;4907478;28;96198;-65
2024/02/27 07:18:15;;;;;;;7.43;6.23;;;5.70;99.90;5.50;100271.00;;;;4905834;28;97551;-65
2024/02/27 07:20:42;;;;;;;8.77;5.50;;;6.40;99.90;5.50;100268.00;;;;4914461;28;92867;-65
2024/02/27 07:23:08;;;;;;;8.17;5.57;;;6.50;99.90;5.50;100260.00;;;;4909029;28;92814;-65
2024/02/27 07:25:33;;;;;;;9.20;4.93;;;6.40;99.90;5.60;100282.00;;;;4910796;28;108270;-66
2024/02/27 07:27:59;;;;;;;11.97;7.03;;;5.80;99.90;5.60;100273.00;;;;4904974;28;93061;-68
2024/02/27 07:30:26;;;;;;;6.10;5.47;;;5.70;99.90;5.60;100276.00;;;;4908846;28;110466;-65
2024/02/27 07:32:53;;;;;;;9.30;6.20;;;6.00;99.90;5.60;100283.00;;;;4911148;28;92921;-65
2024/02/27 07:35:19;;;;;;;10.50;7.23;;;5.80;99.90;5.70;100288.00;;;;4905550;28;93377;-65
2024/02/27 07:37:45;;;;;;;14.53;6.70;;;5.70;99.90;5.70;100281.00;;;;4907147;28;113633;-65
2024/02/27 07:40:11;;;;;;;11.30;7.13;;;6.60;99.90;5.70;100282.00;;;;4908065;28;110804;-65
2024/02/27 07:42:37;;;;;;;9.73;5.93;;;5.90;99.90;5.80;100286.00;;;;4907737;28;98486;-67
2024/02/27 07:45:04;;;;;;;10.77;6.70;;;6.30;99.90;5.80;100285.00;;;;4907024;28;93381;-65
2024/02/27 07:47:30;;;;;;;6.17;5.40;;;6.00;99.90;5.80;100284.00;;;;4907699;28;117407;-65
2024/02/27 07:49:55;;;;;;;13.40;5.70;;;6.00;99.90;5.90;100302.00;;;;4910843;28;109711;-65
2024/02/27 07:52:21;;;;;;;8.87;5.00;;;6.10;99.90;5.90;100304.00;;;;4906913;28;99526;-65
2024/02/27 07:54:47;;;;;;;10.40;6.03;;;6.00;99.90;5.90;100309.00;;;;4907441;28;122320;-65
2024/02/27 07:57:12;;;;;;;9.77;6.07;;;6.50;99.90;5.90;100297.00;;;;4910441;28;123382;-65
2024/02/27 07:59:38;;;;;;;12.73;5.80;;;6.00;99.90;5.90;100302.00;;;;4914051;28;110180;-65
2024/02/27 08:02:04;;;;;;;10.03;5.97;;;6.60;99.90;5.90;100295.00;;;;4909645;28;92907;-65
2024/02/27 08:04:30;;;;;;;7.97;5.53;;;7.00;99.90;6.00;100308.00;;;;4905354;28;123105;-65
2024/02/27 08:06:56;;;;;;;8.43;5.03;;;6.80;99.90;6.00;100310.00;;;;4910188;28;122965;-65
2024/02/27 08:09:21;;;;;;;8.63;5.30;;;6.40;99.90;6.00;100308.00;;;;4908338;28;93008;-65
2024/02/27 08:11:47;;;;;;;8.53;5.50;;;6.10;99.90;6.10;100303.00;;;;4909246;28;108821;-65
2024/02/27 08:14:13;;;;;;;8.80;5.80;;;6.20;99.90;6.10;100303.00;;;;4905604;28;121539;-65
2024/02/27 08:16:38;;;;;;;9.20;6.37;;;6.20;99.90;6.10;100292.00;;;;4904929;28;121678;-65
2024/02/27 08:19:04;;;;;;;9.63;6.00;;;6.90;99.90;6.10;100310.00;;;;4908729;28;110740;-65
2024/02/27 08:21:34;;;;;;;8.90;5.93;;;6.30;99.90;6.20;100308.00;;;;4906114;28;108637;-65
2024/02/27 08:24:03;;;;;;;7.87;4.43;;;6.30;99.90;6.20;100309.00;;;;4910336;28;93217;-66
2024/02/27 08:26:29;;;;;;;10.10;5.80;;;6.40;99.90;6.30;100308.00;;;;4904556;28;93364;-65
2024/02/27 08:28:56;;;;;;;7.27;6.27;;;6.40;99.90;6.30;100310.00;;;;4907572;28;94346;-66
2024/02/27 08:31:23;;;;;;;11.10;6.87;;;6.60;99.90;6.30;100319.00;;;;4909786;28;94026;-66
2024/02/27 08:33:49;;;;;;;5.47;4.47;;;6.50;99.90;6.40;100322.00;;;;4908655;28;93398;-66
2024/02/27 08:36:15;;;;;;;9.00;6.23;;;6.50;99.90;6.40;100326.00;;;;4908015;28;93145;-65
2024/02/27 08:38:46;;;;;;;9.80;6.60;;;6.50;99.90;6.40;100333.00;;;;4906791;28;108951;-67
2024/02/27 08:41:20;;;;;;;9.80;6.13;;;6.50;99.90;6.40;100340.00;;;;4907537;28;92965;-64
2024/02/27 08:43:46;;;;;;;11.13;7.27;;;7.00;99.90;6.40;100352.00;;;;4909153;28;93954;-65
2024/02/27 08:46:18;;;;;;;9.40;6.87;;;6.60;99.90;6.40;100357.00;;;;4912666;28;92884;-65
2024/02/27 08:48:45;;;;;;;8.33;7.13;;;6.60;99.90;6.40;100359.00;;;;4907441;28;110271;-64
2024/02/27 08:51:11;;;;;;;7.43;6.30;;;6.60;99.90;6.50;100354.00;;;;4906416;28;92940;-66
2024/02/27 08:53:37;;;;;;;10.17;6.90;;;6.80;99.90;6.50;100358.00;;;;4903505;28;122179;-66
2024/02/27 08:56:06;;;;;;;9.13;6.43;;;6.60;99.90;6.50;100358.00;;;;4905363;28;93909;-65
2024/02/27 08:58:33;;;;;;;11.67;7.27;;;6.60;99.90;6.50;100351.00;;;;4908504;28;93121;-66
2024/02/27 09:00:59;;;;;;;17.27;7.87;;;6.60;99.90;6.50;100357.00;;;;4908864;28;102980;-66
2024/02/27 09:03:25;;;;;;;9.50;7.03;;;6.60;99.90;6.50;100347.00;;;;4903276;28;93271;-66
2024/02/27 09:05:51;;;;;;;14.23;7.57;;;6.70;99.90;6.50;100360.00;;;;4911288;28;121552;-66
2024/02/27 09:08:17;;;;;;;12.83;7.63;;;6.70;99.90;6.60;100353.00;;;;4909033;28;93009;-65
2024/02/27 09:10:46;;;;;;;13.13;7.30;;;6.70;99.90;6.60;100363.00;;;;4912449;28;109273;-67
2024/02/27 09:13:12;;;;;;;15.07;8.33;;;6.20;99.90;6.60;100370.00;;;;4907716;28;113751;-66
2024/02/27 09:15:37;;;;;;;12.77;7.03;;;6.70;99.90;6.60;100356.00;;;;4907142;28;122687;-65
2024/02/27 09:18:03;;;;;;;13.80;7.67;;;6.70;99.90;6.70;100368.00;;;;4911390;28;92975;-66
2024/02/27 09:20:31;;;;;;;9.47;7.07;;;6.80;99.90;6.70;100371.00;;;;4907130;28;108063;-65
2024/02/27 09:22:57;;;;;;;12.47;7.57;;;7.60;99.90;6.70;100363.00;;;;4910135;28;94342;-66
2024/02/27 09:25:23;;;;;;;18.67;8.53;;;6.80;99.90;6.70;100366.00;;;;4907292;28;93579;-65
2024/02/27 09:27:49;;;;;;;14.47;8.07;;;6.80;99.90;6.70;100369.00;;;;4903152;28;102310;-65
2024/02/27 09:30:15;;;;;;;9.77;7.63;;;6.90;99.90;6.70;100373.00;;;;4902997;28;108274;-65
2024/02/27 09:32:41;;;;;;;14.27;8.60;;;6.80;99.90;6.70;100374.00;;;;4906224;28;94070;-65
2024/02/27 09:35:09;;;;;;;15.47;8.77;;;7.70;99.90;6.70;100377.00;;;;4904737;28;123062;-67
2024/02/27 09:37:38;;;;;;;12.97;9.03;;;6.90;99.90;6.80;100376.00;;;;4902302;28;92329;-66
2024/02/27 09:40:05;;;;;;;9.47;6.33;;;6.90;99.90;6.80;100380.00;;;;4907399;28;92988;-66
2024/02/27 09:42:33;;;;;;;13.80;7.90;;;6.90;99.90;6.80;100366.00;;;;4905684;28;92900;-66
2024/02/27 09:44:59;;;;;;;15.13;6.83;;;6.80;99.90;6.80;100387.00;;;;4905385;28;122793;-66
2024/02/27 09:47:26;;;;;;;14.57;8.23;;;6.90;99.90;6.80;100372.00;;;;4906216;28;110153;-66
2024/02/27 09:49:53;;;;;;;11.10;7.77;;;6.90;99.90;6.80;100379.00;;;;4907313;28;108182;-66
2024/02/27 09:52:21;;;;;;;19.50;9.93;;;7.00;99.90;6.90;100384.00;;;;4910715;28;93795;-66
2024/02/27 09:54:48;;;;;;;16.87;8.97;;;7.50;99.90;6.90;100376.00;;;;4906653;28;92871;-66
2024/02/27 09:57:14;;;;;;;17.03;9.03;;;7.50;99.90;7.00;100392.00;;;;4911347;28;92850;-65
2024/02/27 09:59:40;;;;;;;13.00;8.10;;;7.10;99.90;7.00;100388.00;;;;4914006;28;93165;-65
2024/02/27 10:02:16;;;;;;;13.33;8.07;;;7.20;99.90;7.00;100378.00;;;;4910267;28;93362;-65
2024/02/27 10:04:42;;;;;;;12.90;8.30;;;7.10;99.90;7.00;100375.00;;;;4910310;28;93244;-65
2024/02/27 10:07:12;;;;;;;21.63;9.57;;;7.20;99.90;7.10;100388.00;;;;4909673;28;93020;-65
2024/02/27 10:09:46;;;;;;;19.10;9.57;;;7.10;99.90;7.10;100393.00;;;;4909217;28;93913;-65
2024/02/27 10:12:13;;;;;;;13.63;9.13;;;7.20;99.90;7.10;100407.00;;;;4908189;28;110715;-66
2024/02/27 10:14:39;;;;;;;27.30;10.50;;;7.10;99.90;7.10;100410.00;;;;4913554;28;96810;-66
2024/02/27 10:17:06;;;;;;;12.43;8.83;;;7.20;99.90;7.10;100401.00;;;;4909611;28;99271;-66
2024/02/27 10:19:34;;;;;;;18.47;9.20;;;7.20;99.90;7.10;100405.00;;;;4911790;28;97544;-66
2024/02/27 10:22:01;;;;;;;18.60;9.47;;;7.30;99.90;7.10;100406.00;;;;4912745;28;93685;-66
2024/02/27 10:24:30;;;;;;;18.70;9.67;;;7.20;99.90;7.10;100410.00;;;;4911744;28;93397;-66
2024/02/27 10:27:02;;;;;;;18.73;8.53;;;7.20;99.90;7.10;100421.00;;;;4908117;28;92374;-65
2024/02/27 10:29:30;;;;;;;19.07;10.40;;;7.20;99.90;7.10;100408.00;;;;4915856;28;92861;-66
2024/02/27 10:31:56;;;;;;;15.67;9.70;;;7.20;99.90;7.10;100399.00;;;;4911981;28;116850;-67
2024/02/27 10:34:25;;;;;;;20.67;10.37;;;7.20;99.90;7.10;100403.00;;;;4909802;28;94124;-65
2024/02/27 10:37:04;;;;;;;20.37;10.63;;;7.30;99.90;7.10;100405.00;;;;4910112;28;93186;-66
2024/02/27 10:39:32;;;;;;;15.10;9.60;;;7.20;99.90;7.20;100406.00;;;;4908553;28;109054;-66
2024/02/27 10:41:58;;;;;;;13.93;8.80;;;7.40;99.90;7.10;100407.00;;;;4910201;28;93484;-65
2024/02/27 10:44:26;;;;;;;21.50;12.30;;;7.20;99.90;7.10;100413.00;;;;4912154;28;93684;-65
2024/02/27 10:46:58;;;;;;;19.83;10.17;;;7.30;99.90;7.10;100402.00;;;;4909843;28;93390;-65
2024/02/27 10:49:23;;;;;;;25.90;12.40;;;7.20;99.90;7.20;100413.00;;;;4910675;28;92906;-66